Terminal Aerodrome Forecast
Issued by NWS

Home | Current Version | Previous Version | Text Only | Print | Product List | Glossary On
Versions: 1 2 3 4 5 6 7 8 9 10 11 12 13 14 15 16 17 18 19 20 21 22 23 24 25 26 27 28 29 30 31 32 33 34 35 36 37 38 39 40 41 42 43 44 45 46
215
FTUS43 KDMX 220912 AAB
TAFMCW
TAF AMD
KMCW 220912Z 2209/2306 11008KT 1 1/2SM -SN OVC030
      TEMPO 2210/2212 3/4SM -SN BKN004 OVC012
     FM221200 09007KT P6SM VCSH OVC027
     FM221700 09008KT 3SM -SN OVC018
     FM222000 10011KT 2SM -FZDZSN OVC008
     FM230100 12010KT 1SM -SN OVC006
     FM230500 16007KT 1 1/2SM -FZRASN OVC004=

USA.gov is the U.S. government's official web portal to all federal, state and local government web resources and services.